logo
Rechercher aéroport 
image banner adimage banner adimage banner ad
image banner ad

FA0308 - Hippo Hollow Helistop

Situé à , South Africa

ICAO - , IATA -

Données fournies par Airmate  

Information générale

Coordonnées: S25°1'55" E31°7'26"
Élévation : 1563 feet MSL.
 
Voir autres Aéroports à Mpumalanga

Données opérationnelles

Special qualification required
Heure actuelle UTC:
Heure actuelle locale:
METAR: FAKN 240700Z 27002KT CAVOK 19/08 Q1025 NOSIG
TAF: TAF FAKN 240600Z 2407/2418 VRB03KT CAVOK TX25/2413Z TN16/2418Z BECMG 2410/2412 14010KT FM241700 VRB03KT 9999 SCT020
Voir NOTAMs / SUP AIP / TFR affectant cet aéroport [VIEW]
Fréquences de communication: [VIEW]

Pistes:

Coordonnées de l'aéroport

Adresse: South Africa

Vue satellite de FA0308